Castle Dale, Utah
Current Conditions -  °F | °C
As of 3:53 AM on Sunday 23 Nov 2014 (Local Time) from KPUC Reporting Station
Clear Clear  
Wind Chill: 18°   Ceiling: Unl
Heat Index: 30°   Visibility: 10mi
Dew Point: 22°   Wind: 20mph
Humidity: 72%   Direction: 310°NW
Pressure: 29.9"   Gusts: 26mph
Location:  39.21°N, 111.02°W
Report Text: KPUC 231053Z AUTO 31017G23KT 10SM CLR M01/M06 A2990 RMK AO2 SNE23 SLP153 P0000 T10111056 $
Loading
Personal Weather Stations






























Interactive Weather Map New forecast layout! Learn more

10-Day Weather Forecast

Advertisements
Track Severe Weather on mobile